Latest Coastal Weather Observations for Wyndham Airport

IDD60701

Issued at 11:21 pm CST Thursday 23 February 2017 (issued every 10 minutes, with the page automatically refreshed every 10 minutes)

About coastal observations | Map of coastal stations | Coastal observations for NT | Marine services | Other Formats
Station Details ID: 001006 Name: WYNDHAM AERO Lat: -15.51 Lon: 128.15 Height: 3.8 m
Data from the previous 72 hours. | See also: Recent months at Wyndham Airport
Date/Time
CST
Temp
°C
Wind Pressure Rain since
9am
mm
Weather Cloud Vis
km
Sea
Height
m
Swell
Dir  Spd
kts
Gust
kts
hPa Trend Height
m
Period
s
Dir
23/11:00pm 26.8 CALM 0 0 1008.7 - 0.0 - - - - - - -
23/10:30pm 27.1 CALM 0 0 1008.6 - 0.0 - - - - - - -
23/10:00pm 28.2 CALM 0 0 1008.5 - 0.0 - - - - - - -
23/09:30pm 29.0 CALM 0 0 1008.2 - 0.0 - - - - - - -
23/09:00pm 29.2 NNE 3 5 1007.8 - 0.0 - - - - - - -
23/08:30pm 29.5 NNE 4 6 1007.5 - 0.0 - - - - - - -
23/08:00pm 30.4 N 2 4 1007.3 - 0.0 - - - - - - -
23/07:30pm 32.4 CALM 0 0 1007.0 - 0.0 - - - - - - -
23/07:00pm 36.3 NE 1 3 1006.8 - 0.0 - - - - - - -
23/06:30pm 37.1 CALM 0 0 1006.7 - 0.0 - - - - - - -
23/06:00pm 37.4 ENE 4 7 1006.5 - 0.0 - - - - - - -
23/05:30pm 37.3 ENE 6 9 1006.4 - 0.0 - - - - - - -
23/05:00pm 38.0 ESE 4 7 1006.2 - 0.0 - - - - - - -
23/04:30pm 38.7 E 6 10 1006.3 - 0.0 - - - - - - -
23/04:00pm 38.4 ESE 4 8 1006.4 - 0.0 - - - - - - -
23/03:30pm 38.7 ESE 3 6 1006.5 - 0.0 - - - - - - -
23/03:00pm 38.4 ESE 6 9 1006.8 - 0.0 - - - - - - -
23/02:30pm 38.2 ESE 6 9 1007.2 - 0.0 - - - - - - -
23/02:00pm 37.4 ESE 5 7 1007.7 - 0.0 - - - - - - -
23/01:30pm 36.9 SE 3 7 1008.1 - 0.0 - - - - - - -
23/01:00pm 36.7 SSE 2 5 1008.4 - 0.0 - - - - - - -
23/12:30pm 36.3 S 4 7 1008.7 - 0.0 - - - - - - -
23/12:00pm 35.2 WSW 3 6 1009.1 - 0.0 - - - - - - -
23/11:30am 34.1 SW 2 4 1009.5 - 0.0 - - - - - - -
23/11:00am 32.7 WSW 3 5 1010.0 - 0.0 - - - - - - -
23/10:30am 31.6 WSW 2 5 1010.3 - 0.0 - - - - - - -
23/10:00am 30.5 SW 3 5 1010.4 - 0.0 - - - - - - -
23/09:30am 29.6 WSW 4 6 1010.4 - 0.0 - - - - - - -
23/09:00am 28.4 CALM 0 4 1010.3 - 0.0 - - - - - - -
23/08:30am 27.1 NNW 1 3 1010.2 - 0.0 - - - - - - -
23/08:00am 26.2 CALM 0 0 1010.0 - 0.0 - - - - - - -
23/07:30am 24.3 NNW 3 4 1009.8 - 0.0 - - - - - - -
23/07:00am 23.8 W 3 4 1009.7 - 0.0 - - - - - - -
23/06:30am 23.7 CALM 0 0 1009.5 - 0.0 - - - - - - -
23/06:00am 24.6 CALM 0 0 1009.2 - 0.0 - - - - - - -
23/05:30am 23.7 CALM 0 0 1009.0 - 0.0 - - - - - - -
23/05:00am 23.7 CALM 0 0 1008.9 - 0.0 - - - - - - -
23/04:30am 24.0 NW 3 4 1008.7 - 0.0 - - - - - - -
23/04:00am 23.9 WNW 1 4 1008.4 - 0.0 - - - - - - -
23/03:30am 24.4 CALM 0 3 1008.4 - 0.0 - - - - - - -
23/03:00am 23.9 CALM 0 0 1008.4 - 0.0 - - - - - - -
23/02:30am 23.9 CALM 0 0 1008.7 - 0.0 - - - - - - -
23/02:00am 24.5 WNW 4 4 1009.1 - 0.0 - - - - - - -
23/01:30am 24.0 NW 4 5 1009.4 - 0.0 - - - - - - -
23/01:00am 24.4 NW 3 4 1009.8 - 0.0 - - - - - - -
23/12:30am 24.5 NNW 4 5 1009.9 - 0.0 - - - - - - -
23/12:00am 25.2 NW 4 4 1010.0 - 0.0 - - - - - - -
 
Date/Time
CST
Temp
°C
Wind Pressure Rain since
9am
mm
Weather Cloud Vis
km
Sea
Height
m
Swell
Dir  Spd
kts
Gust
kts
hPa Trend Height
m
Period
s
Dir
22/11:30pm 25.3 CALM 0 0 1010.0 - 0.0 - - - - - - -
22/11:00pm 26.4 WSW 2 4 1010.1 - 0.0 - - - - - - -
22/10:30pm 26.5 SW 5 7 1009.9 - 0.0 - - - - - - -
22/10:00pm 26.7 N 3 5 1009.8 - 0.0 - - - - - - -
22/09:30pm 27.0 NNW 3 4 1009.7 - 0.0 - - - - - - -
22/09:00pm 28.6 WNW 4 5 1009.3 - 0.0 - - - - - - -
22/08:30pm 28.9 W 3 4 1008.9 - 0.0 - - - - - - -
22/08:00pm 29.1 NE 7 7 1008.5 - 0.0 - - - - - - -
22/07:30pm 30.5 NE 6 7 1008.4 - 0.0 - - - - - - -
22/07:00pm 33.5 ENE 5 6 1008.0 - 0.0 - - - - - - -
22/06:30pm 34.4 ENE 7 9 1007.6 - 0.0 - - - - - - -
22/06:00pm 36.1 ENE 5 8 1007.6 - 0.0 - - - - - - -
22/05:30pm 36.0 ESE 5 9 1007.5 - 0.0 - - - - - - -
22/05:00pm 36.4 ESE 5 8 1007.5 - 0.0 - - - - - - -
22/04:30pm 36.4 ESE 8 11 1007.6 - 0.0 - - - - - - -
22/04:00pm 36.5 ESE 7 12 1007.8 - 0.0 - - - - - - -
22/03:30pm 36.8 NNE 3 5 1008.0 - 0.0 - - - - - - -
22/03:00pm 36.5 E 5 8 1008.1 - 0.0 - - - - - - -
22/02:30pm 36.1 NE 6 11 1008.5 - 0.0 - - - - - - -
22/02:00pm 36.5 SE 4 6 1009.0 - 0.0 - - - - - - -
22/01:30pm 35.5 SE 4 7 1009.4 - 0.0 - - - - - - -
22/01:00pm 35.4 CALM 0 3 1009.8 - 0.0 - - - - - - -
22/12:30pm 34.5 S 4 7 1010.3 - 0.0 - - - - - - -
22/12:00pm 34.0 SW 5 7 1010.7 - 0.0 - - - - - - -
22/11:30am 32.9 WSW 5 8 1011.2 - 0.0 - - - - - - -
22/11:00am 31.6 SW 7 9 1011.5 - 0.0 - - - - - - -
22/10:30am 30.9 SW 7 10 1011.6 - 0.0 - - - - - - -
22/10:00am 30.3 WSW 7 9 1011.8 - 0.0 - - - - - - -
22/09:30am 29.7 W 4 7 1011.8 - 0.0 - - - - - - -
22/09:00am 28.1 WSW 2 4 1011.7 - 0.0 - - - - - - -
22/08:30am 27.3 CALM 0 0 1011.6 - 0.0 - - - - - - -
22/08:00am 26.4 CALM 0 0 1011.3 - 0.0 - - - - - - -
22/07:30am 24.6 CALM 0 0 1010.9 - 0.0 - - - - - - -
22/07:00am 23.8 NW 3 4 1010.8 - 0.0 - - - - - - -
22/06:30am 24.5 W 2 3 1010.5 - 0.0 - - - - - - -
22/06:00am 24.0 NW 3 3 1010.3 - 0.0 - - - - - - -
22/05:30am 23.8 CALM 0 0 1010.1 - 0.0 - - - - - - -
22/05:00am 23.9 CALM 0 0 1009.8 - 0.0 - - - - - - -
22/04:30am 24.2 CALM 0 0 1009.6 - 0.0 - - - - - - -
22/04:00am 25.5 W 4 6 1009.5 - 0.0 - - - - - - -
22/03:30am 25.7 W 4 5 1009.4 - 0.0 - - - - - - -
22/03:00am 24.8 CALM 0 3 1009.4 - 0.0 - - - - - - -
22/02:30am 24.8 WNW 3 5 1009.4 - 0.0 - - - - - - -
22/02:00am 24.8 NW 4 5 1009.5 - 0.0 - - - - - - -
22/01:30am 25.7 CALM 0 4 1009.8 - 0.0 - - - - - - -
22/01:00am 26.0 SSW 5 8 1010.0 - 0.0 - - - - - - -
22/12:30am 25.7 SSE 2 7 1010.2 - 0.0 - - - - - - -
22/12:00am 26.6 CALM 0 1 1010.3 - 0.0 - - - - - - -
 
Date/Time
CST
Temp
°C
Wind Pressure Rain since
9am
mm
Weather Cloud Vis
km
Sea
Height
m
Swell
Dir  Spd
kts
Gust
kts
hPa Trend Height
m
Period
s
Dir
21/11:30pm 26.6 NE 1 4 1010.5 - 0.0 - - - - - - -
21/11:00pm 26.7 NE 2 3 1010.5 - 0.0 - - - - - - -
21/10:30pm 27.2 CALM 0 0 1010.5 - 0.0 - - - - - - -
21/10:00pm 27.2 N 4 5 1010.2 - 0.0 - - - - - - -
21/09:30pm 28.0 NNW 3 4 1009.9 - 0.0 - - - - - - -
21/09:00pm 29.1 WNW 3 4 1009.6 - 0.0 - - - - - - -
21/08:30pm 29.4 WNW 3 4 1009.2 - 0.0 - - - - - - -
21/08:00pm 29.7 NNW 3 4 1008.9 - 0.0 - - - - - - -
21/07:30pm 30.7 NE 4 4 1008.5 - 0.0 - - - - - - -
21/07:00pm 31.8 NE 4 5 1008.1 - 0.0 - - - - - - -
21/06:30pm 33.3 NE 5 5 1007.9 - 0.0 - - - - - - -
21/06:00pm 34.3 ENE 4 6 1007.7 - 0.0 - - - - - - -
21/05:30pm 34.7 ESE 5 7 1007.6 - 0.0 - - - - - - -
21/05:00pm 35.7 ENE 2 5 1007.6 - 0.0 - - - - - - -
21/04:30pm 35.2 ENE 4 7 1007.9 - 0.0 - - - - - - -
21/04:00pm 35.3 E 6 8 1008.1 - 0.0 - - - - - - -
21/03:30pm 35.6 SE 4 8 1008.2 - 0.0 - - - - - - -
21/03:00pm 35.3 SE 4 7 1008.6 - 0.0 - - - - - - -
21/02:30pm 35.2 E 7 9 1009.1 - 0.0 - - - - - - -
21/02:00pm 35.0 ESE 5 8 1009.4 - 0.0 - - - - - - -
21/01:30pm 34.8 N 3 6 1009.9 - 0.0 - - - - - - -
21/01:00pm 34.3 ESE 4 7 1010.7 - 0.0 - - - - - - -
21/12:30pm 34.1 SSW 3 6 1011.1 - 0.0 - - - - - - -
21/12:00pm 33.4 SW 3 6 1011.4 - 0.0 - - - - - - -
21/11:30am 32.7 SW 5 7 1011.8 - 0.0 - - - - - - -
21/11:00am 31.8 W 5 7 1012.1 - 0.0 - - - - - - -
21/10:30am 30.8 WSW 5 7 1012.3 - 0.0 - - - - - - -
21/10:00am 29.9 SW 4 7 1012.4 - 0.0 - - - - - - -
21/09:30am 29.3 SW 1 5 1012.5 - 0.0 - - - - - - -
21/09:00am 28.4 WSW 2 4 1012.2 - 0.0 - - - - - - -
21/08:30am 27.5 WNW 3 4 1011.8 - 0.0 - - - - - - -
21/08:00am 26.5 WNW 3 4 1011.3 - 0.0 - - - - - - -
21/07:30am 26.0 W 2 5 1010.9 - 0.0 - - - - - - -
21/07:00am 24.8 NW 4 4 1010.4 - 0.0 - - - - - - -
21/06:30am 24.7 NW 5 5 1010.0 - 0.0 - - - - - - -
21/06:00am 24.7 NW 4 5 1009.5 - 0.0 - - - - - - -
21/05:30am 24.7 CALM 0 0 1009.6 - 0.0 - - - - - - -
21/05:00am 25.0 CALM 0 0 1009.5 - 0.0 - - - - - - -
21/04:30am 24.9 CALM 0 0 1009.2 - 0.0 - - - - - - -
21/04:00am 25.0 CALM 0 0 1009.0 - 0.0 - - - - - - -
21/03:30am 25.0 CALM 0 0 1008.9 - 0.0 - - - - - - -
21/03:00am 25.5 CALM 0 0 1008.8 - 0.0 - - - - - - -
21/02:30am 26.0 CALM 0 0 1009.1 - 0.0 - - - - - - -
21/02:00am 25.8 CALM 0 0 1009.4 - 0.0 - - - - - - -
21/01:30am 26.1 CALM 0 0 1009.5 - 0.0 - - - - - - -
21/01:00am 26.8 WSW 6 8 1009.7 - 0.0 - - - - - - -

Other Formats:

Comma delimited format used in spreadsheet applications
http://www.bom.gov.au/fwo/IDD60701/IDD60701.95214.axf

JavaScript Object Notation format (JSON) in row-major order
http://www.bom.gov.au/fwo/IDD60701/IDD60701.95214.json